Impacts METAR Board INFO
IDs:

KORD - Chicago/O'Hare Intl, IL, US

Updated at: 0343 UTC 20 Feb 2018
Potential Impact None Slight Moderate High
Time19/15Z 19/16Z 19/17Z 19/18Z 19/19Z 19/20Z 19/21Z 19/22Z 19/23Z 20/00Z 20/01Z 20/02Z 20/03Z
VIS1.75 1 1 0.5 0.5 5 10 10 10 8 10 9 7
CIG4 4 4 5 3 5 10 14 12 10 9 11 30
CoverOVCOVCOVCOVCOVCOVCOVCOVCOVCOVCOVCOVCOVC
FltCatLIFRLIFRLIFRLIFRLIFRIFRMVFRMVFRMVFRMVFRIFRMVFRMVFR
WX-RA BR-RA BR-RA BR-RA FG-RA FGMIFG BR-------RA-RA-RA-RA
WDir1500140130160210210210210200200190190
WSpd7 0 7 5 4 14 16 16 17 18 18 14 17
WGst-- -- -- -- -- 21 24 24 23 24 23 23 22
Raw hourly METARs
KORD 191505Z 15007KT 1 3/4SM -RA BR OVC004 05/04 A2984 RMK AO2 P0000 T00500039 $
KORD 191559Z 00000KT 1SM R10L/3500V6000FT -RA BR OVC004 05/04 A2984 RMK AO2 P0000 T00500044 $
KORD 191705Z 14007KT 1SM R10L/4000V5000FT -RA BR OVC004 07/06 A2981 RMK AO2 RAB1653 P0000 T00670056 $
KORD 191753Z 13005KT 1/2SM R10L/4000V6000FT -RA FG BKN005 OVC011 06/05 A2978 RMK AO2 P0000 T00610050 $
KORD 191851Z 16004KT 1/2SM R10L/P6000FT -RA FG OVC003 07/07 A2976 RMK AO2 SLP080 P0003 T00720067 $
KORD 191959Z 21014G21KT 5SM MIFG BR OVC005 12/11 A2974 RMK AO2 CIG 003V008 T01170106 $
KORD 192051Z 21016G24KT 10SM BKN010 OVC018 13/12 A2976 RMK AO2 PK WND 21026/2041 SLP080 60004 T01330117 53002 $
KORD 192151Z 21016G24KT 10SM BKN014 OVC085 14/12 A2978 RMK AO2 PK WND 21026/2053 SLP087 T01390117 $
KORD 192251Z 21017G23KT 10SM BKN012 OVC030 14/12 A2979 RMK AO2 PK WND 21028/2216 RAB03E51 SLP090 P0000 T01440122 $
KORD 192351Z 20018G24KT 8SM -RA OVC010 14/12 A2980 RMK AO2 PK WND 22027/2303 RAB36 SLP092 P0001 60005 T01390122 10144 20061 51011 $
KORD 200051Z 20018G23KT 10SM -RA BKN009 OVC013 14/13 A2981 RMK AO2 PK WND 21026/0017 SLP098 P0001 T01440128 $
KORD 200151Z 19014G23KT 9SM -RA BKN011 OVC022 14/13 A2980 RMK AO2 SLP093 P0000 T01440128 $
KORD 200256Z 19017G22KT 7SM -RA SCT012 BKN030 OVC090 14/12 A2981 RMK AO2 P0000 T01390122 $